createdAt,value
2019-04-20T00:00:54.533Z,9.80
2019-04-20T00:03:24.756Z,9.80
2019-04-20T00:05:53.529Z,9.70
2019-04-20T00:08:27.880Z,9.70
2019-04-20T00:11:02.385Z,9.70
2019-04-20T00:13:37.850Z,9.60
2019-04-20T00:15:57.830Z,9.60
2019-04-20T00:18:36.906Z,9.60
2019-04-20T00:21:19.107Z,9.60
2019-04-20T00:23:51.902Z,9.60
2019-04-20T00:27:09.112Z,9.50
2019-04-20T00:29:29.896Z,9.50
2019-04-20T00:31:58.304Z,9.40
2019-04-20T00:34:24.701Z,9.40
2019-04-20T00:36:49.776Z,9.30
2019-04-20T00:39:20.217Z,9.30
2019-04-20T00:41:56.062Z,9.20
2019-04-20T00:44:27.538Z,9.20
2019-04-20T00:47:04.859Z,9.10
2019-04-20T00:49:43.226Z,9.10
2019-04-20T00:52:24.293Z,9.10
2019-04-20T00:54:26.458Z,9.00
2019-04-20T00:57:10.481Z,8.90
2019-04-20T00:59:44.595Z,8.90
2019-04-20T01:02:12.665Z,8.80
2019-04-20T01:04:50.806Z,8.80
2019-04-20T01:07:29.803Z,8.80
2019-04-20T01:10:08.989Z,8.70
2019-04-20T01:12:40.702Z,8.60
2019-04-20T01:15:16.856Z,8.60
2019-04-20T01:17:42.939Z,8.60
2019-04-20T01:20:12.312Z,8.60
2019-04-20T01:22:48.195Z,8.50
2019-04-20T01:25:18.137Z,8.50
2019-04-20T01:28:05.479Z,8.50
2019-04-20T01:30:25.229Z,8.40
2019-04-20T01:33:00.486Z,8.40
2019-04-20T01:35:37.928Z,8.30
2019-04-20T01:38:16.617Z,8.30
2019-04-20T01:40:21.518Z,8.20
2019-04-20T01:42:51.427Z,8.20
2019-04-20T01:45:27.468Z,8.10
2019-04-20T01:47:55.840Z,8.10
2019-04-20T01:50:27.775Z,8.10
2019-04-20T01:53:08.604Z,8.00
2019-04-20T01:55:43.985Z,8.00
2019-04-20T01:58:32.581Z,7.90
2019-04-20T02:01:13.561Z,7.80
2019-04-20T02:03:57.480Z,7.70
2019-04-20T02:06:28.710Z,7.70
2019-04-20T02:09:04.380Z,7.60
2019-04-20T02:11:34.956Z,7.70
2019-04-20T02:14:05.741Z,7.70
2019-04-20T02:16:39.177Z,7.60
2019-04-20T02:19:21.643Z,7.50
2019-04-20T02:21:51.835Z,7.50
2019-04-20T02:24:10.536Z,7.40
2019-04-20T02:26:38.791Z,7.50
2019-04-20T02:29:31.972Z,7.40
2019-04-20T02:32:15.480Z,7.30
2019-04-20T02:35:01.611Z,7.30
2019-04-20T02:40:27.089Z,7.40
2019-04-20T02:42:59.781Z,7.40
2019-04-20T02:45:33.605Z,7.20
2019-04-20T02:48:06.559Z,7.20
2019-04-20T02:50:34.097Z,7.20
2019-04-20T02:53:06.168Z,7.20
2019-04-20T03:00:28.790Z,7.10
2019-04-20T03:02:45.065Z,7.10
2019-04-20T03:05:12.406Z,7.10
2019-04-20T03:07:53.395Z,6.90
2019-04-20T03:10:27.622Z,6.90
2019-04-20T03:12:59.357Z,6.90
2019-04-20T03:15:26.454Z,7.00
2019-04-20T03:18:00.106Z,6.90
2019-04-20T03:20:29.867Z,6.90
2019-04-20T03:23:17.491Z,6.90
2019-04-20T03:25:55.302Z,6.80
2019-04-20T03:28:22.235Z,6.80
2019-04-20T03:34:03.409Z,6.70
2019-04-20T03:36:25.944Z,6.60
2019-04-20T03:38:41.115Z,6.60
2019-04-20T03:41:09.577Z,6.50
2019-04-20T03:43:27.001Z,6.50
2019-04-20T03:46:04.210Z,6.40
2019-04-20T03:48:41.424Z,6.50
2019-04-20T03:51:23.933Z,6.50
2019-04-20T03:54:07.578Z,6.30
2019-04-20T03:56:46.272Z,6.30
2019-04-20T03:59:33.802Z,6.20
2019-04-20T04:02:22.175Z,6.30
2019-04-20T04:04:54.510Z,6.30
2019-04-20T04:07:21.941Z,6.30
2019-04-20T04:10:00.786Z,6.20
2019-04-20T04:12:49.845Z,6.20
2019-04-20T04:15:19.050Z,6.30
2019-04-20T04:17:49.845Z,6.30
2019-04-20T04:20:21.438Z,6.30
2019-04-20T04:23:10.322Z,6.30
2019-04-20T04:25:34.144Z,6.20
2019-04-20T04:28:12.892Z,6.40
2019-04-20T04:30:40.400Z,6.40
2019-04-20T04:33:40.005Z,6.40
2019-04-20T04:35:44.302Z,6.40
2019-04-20T04:38:24.033Z,6.40
2019-04-20T04:40:56.279Z,6.40
2019-04-20T04:43:21.732Z,6.60
2019-04-20T04:45:33.986Z,6.60
2019-04-20T04:48:07.612Z,6.80
2019-04-20T04:50:44.879Z,7.10
2019-04-20T04:53:20.626Z,7.00
2019-04-20T04:55:48.742Z,7.10
2019-04-20T04:58:09.017Z,7.20
2019-04-20T05:00:39.146Z,7.30
2019-04-20T05:03:28.591Z,7.40
2019-04-20T05:06:06.556Z,7.60
2019-04-20T05:08:33.805Z,7.70
2019-04-20T05:10:56.196Z,7.80
2019-04-20T05:13:35.690Z,7.80
2019-04-20T05:16:09.767Z,7.90
2019-04-20T05:18:50.811Z,8.00
2019-04-20T05:21:24.496Z,8.10
2019-04-20T05:23:55.435Z,8.30
2019-04-20T05:26:58.241Z,8.40
2019-04-20T05:29:11.795Z,8.60
2019-04-20T05:31:40.375Z,8.70
2019-04-20T05:34:26.055Z,8.90
2019-04-20T05:36:57.414Z,9.10
2019-04-20T05:39:32.608Z,9.20
2019-04-20T05:41:58.091Z,9.30
2019-04-20T05:44:39.352Z,9.40
2019-04-20T05:47:06.452Z,9.60
2019-04-20T05:49:34.507Z,9.70
2019-04-20T05:52:24.455Z,9.80
2019-04-20T05:54:51.128Z,9.90
2019-04-20T05:57:21.128Z,10.10
2019-04-20T05:59:51.400Z,10.10
2019-04-20T06:02:16.887Z,10.20
2019-04-20T06:07:15.339Z,10.40
2019-04-20T06:09:46.275Z,10.60
2019-04-20T06:12:20.114Z,10.70
2019-04-20T06:15:09.443Z,10.80
2019-04-20T06:18:01.000Z,10.90
2019-04-20T06:20:33.438Z,11.10
2019-04-20T06:23:12.154Z,11.20
2019-04-20T06:26:03.887Z,11.40
2019-04-20T06:28:20.606Z,11.50
2019-04-20T06:30:49.461Z,11.60
2019-04-20T06:34:25.897Z,11.70
2019-04-20T06:36:34.674Z,11.80
2019-04-20T06:39:08.006Z,12.00
2019-04-20T06:41:57.088Z,12.10
2019-04-20T06:44:08.202Z,12.20
2019-04-20T06:46:47.374Z,12.40
2019-04-20T06:49:10.125Z,12.50
2019-04-20T06:51:42.738Z,12.60
2019-04-20T06:54:14.806Z,12.70
2019-04-20T06:56:57.094Z,12.90
2019-04-20T06:59:36.295Z,13.10
2019-04-20T07:02:07.096Z,13.10
2019-04-20T07:07:08.451Z,13.40
2019-04-20T07:12:02.906Z,13.60
2019-04-20T07:14:27.486Z,13.70
2019-04-20T07:17:32.966Z,13.80
2019-04-20T07:19:56.101Z,13.90
2019-04-20T07:22:33.701Z,14.10
2019-04-20T07:25:32.069Z,14.20
2019-04-20T07:27:36.842Z,14.30
2019-04-20T07:30:08.089Z,14.40
2019-04-20T07:32:48.527Z,14.50
2019-04-20T07:35:08.714Z,14.60
2019-04-20T07:38:11.497Z,14.80
2019-04-20T07:40:29.138Z,14.90
2019-04-20T07:45:27.792Z,15.10
2019-04-20T07:50:18.866Z,15.20
2019-04-20T07:52:48.222Z,15.30
2019-04-20T07:55:36.991Z,15.50
2019-04-20T07:57:50.041Z,15.60
2019-04-20T08:00:35.613Z,15.80
2019-04-20T08:03:21.969Z,15.90
2019-04-20T08:06:01.438Z,16.00
2019-04-20T08:08:37.685Z,16.10
2019-04-20T08:11:12.240Z,16.30
2019-04-20T08:13:51.658Z,16.40
2019-04-20T08:16:29.242Z,16.40
2019-04-20T08:18:51.221Z,16.50
2019-04-20T08:21:25.446Z,16.70
2019-04-20T08:23:48.995Z,16.70
2019-04-20T08:26:11.044Z,16.80
2019-04-20T08:28:46.547Z,16.90
2019-04-20T08:31:40.651Z,17.00
2019-04-20T08:34:26.452Z,17.00
2019-04-20T08:36:51.219Z,17.30
2019-04-20T08:39:38.149Z,17.40
2019-04-20T08:41:56.452Z,17.40
2019-04-20T08:44:47.055Z,17.40
2019-04-20T08:47:15.878Z,17.50
2019-04-20T08:49:35.112Z,17.50
2019-04-20T08:52:21.320Z,17.60
2019-04-20T08:54:32.595Z,17.70
2019-04-20T08:56:51.804Z,17.60
2019-04-20T08:59:15.207Z,17.70
2019-04-20T09:01:46.700Z,17.70
2019-04-20T09:04:24.274Z,17.80
2019-04-20T09:07:00.964Z,17.90
2019-04-20T09:09:52.742Z,18.00
2019-04-20T09:12:11.566Z,18.00
2019-04-20T09:14:23.673Z,18.20
2019-04-20T09:17:05.742Z,18.20
2019-04-20T09:19:42.137Z,18.20
2019-04-20T09:22:28.376Z,18.30
2019-04-20T09:25:19.283Z,18.30
2019-04-20T09:27:33.981Z,18.30
2019-04-20T09:30:09.423Z,18.40
2019-04-20T09:32:44.261Z,18.50
2019-04-20T09:35:20.985Z,18.40
2019-04-20T09:37:53.016Z,18.50
2019-04-20T09:40:37.600Z,18.50
2019-04-20T09:43:08.796Z,18.70
2019-04-20T09:45:48.113Z,18.80
2019-04-20T09:48:23.247Z,18.90
2019-04-20T09:51:02.255Z,19.10
2019-04-20T09:53:30.165Z,19.10
2019-04-20T09:56:08.319Z,19.10
2019-04-20T09:58:30.891Z,19.20
2019-04-20T10:01:05.526Z,19.30
2019-04-20T10:03:22.655Z,19.20
2019-04-20T10:05:52.125Z,19.10
2019-04-20T10:08:23.811Z,19.20
2019-04-20T10:10:54.355Z,19.50
2019-04-20T10:13:25.200Z,19.70
2019-04-20T10:15:55.538Z,19.90
2019-04-20T10:18:25.944Z,19.90
2019-04-20T10:20:55.862Z,19.80
2019-04-20T10:23:25.317Z,19.90
2019-04-20T10:25:56.421Z,20.00
2019-04-20T10:28:27.701Z,20.10
2019-04-20T10:30:57.103Z,20.30
2019-04-20T10:33:27.833Z,20.30
2019-04-20T10:35:57.484Z,20.40
2019-04-20T10:38:33.759Z,20.50
2019-04-20T10:41:08.156Z,20.40
2019-04-20T10:43:33.233Z,20.40
2019-04-20T10:46:02.754Z,20.60
2019-04-20T10:48:41.363Z,20.60
2019-04-20T10:51:05.146Z,20.80
2019-04-20T10:53:34.994Z,20.50
2019-04-20T10:56:05.305Z,20.90
2019-04-20T10:58:35.826Z,21.10
2019-04-20T11:01:05.216Z,21.20
2019-04-20T11:03:34.691Z,21.30
2019-04-20T11:06:04.863Z,21.50
2019-04-20T11:08:35.057Z,21.50
2019-04-20T11:11:13.006Z,21.40
2019-04-20T11:13:37.448Z,21.60
2019-04-20T11:16:06.840Z,21.40
2019-04-20T11:18:36.056Z,21.60
2019-04-20T11:21:07.044Z,21.70
2019-04-20T11:23:38.311Z,21.90
2019-04-20T11:26:08.637Z,22.10
2019-04-20T11:28:38.369Z,22.10
2019-04-20T11:31:08.066Z,22.20
2019-04-20T11:33:38.505Z,22.20
2019-04-20T11:36:07.851Z,22.10
2019-04-20T11:38:38.683Z,22.30
2019-04-20T11:41:17.730Z,22.30
2019-04-20T11:43:39.858Z,22.20
2019-04-20T11:46:09.124Z,22.00
2019-04-20T11:48:39.445Z,22.30
2019-04-20T11:51:09.582Z,22.50
2019-04-20T11:53:38.817Z,22.60
2019-04-20T11:56:14.554Z,22.70
2019-04-20T11:58:40.706Z,22.70
2019-04-20T12:01:38.128Z,22.80
2019-04-20T12:04:09.244Z,22.90
2019-04-20T12:06:30.847Z,22.70
2019-04-20T12:09:01.045Z,22.80
2019-04-20T12:11:39.692Z,22.90
2019-04-20T12:14:02.734Z,23.20
2019-04-20T12:16:32.743Z,23.10
2019-04-20T12:19:02.416Z,23.30
2019-04-20T12:21:32.723Z,23.10
2019-04-20T12:24:02.540Z,22.70
2019-04-20T12:26:32.935Z,22.80
2019-04-20T12:29:03.555Z,23.10
2019-04-20T12:31:33.547Z,23.00
2019-04-20T12:34:04.438Z,23.10
2019-04-20T12:36:35.330Z,22.90
2019-04-20T12:39:06.912Z,22.80
2019-04-20T12:41:44.458Z,22.70
2019-04-20T12:44:08.024Z,23.00
2019-04-20T12:46:38.231Z,22.80
2019-04-20T12:49:09.416Z,22.80
2019-04-20T12:51:47.505Z,22.20
2019-04-20T12:54:10.856Z,22.70
2019-04-20T12:56:40.510Z,22.40
2019-04-20T12:59:09.872Z,22.70
2019-04-20T13:01:39.591Z,22.80
2019-04-20T13:04:09.488Z,22.80
2019-04-20T13:06:39.220Z,22.60
2019-04-20T13:09:12.542Z,22.50
2019-04-20T13:11:56.815Z,22.60
2019-04-20T13:14:48.527Z,22.60
2019-04-20T13:17:17.983Z,22.70
2019-04-20T13:19:49.120Z,22.70
2019-04-20T13:22:19.069Z,22.70
2019-04-20T13:24:49.298Z,22.40
2019-04-20T13:27:19.215Z,22.40
2019-04-20T13:29:50.880Z,22.60
2019-04-20T13:32:20.282Z,22.60
2019-04-20T13:34:50.287Z,22.40
2019-04-20T13:37:22.010Z,22.30
2019-04-20T13:39:53.144Z,21.90
2019-04-20T13:42:25.145Z,21.90
2019-04-20T13:44:54.832Z,21.80
2019-04-20T13:47:25.066Z,21.50
2019-04-20T13:49:54.957Z,21.50
2019-04-20T13:52:24.749Z,21.50
2019-04-20T13:54:54.153Z,21.80
2019-04-20T13:57:29.433Z,21.90
2019-04-20T14:00:00.103Z,21.70
2019-04-20T14:02:44.734Z,21.50
2019-04-20T14:05:16.848Z,21.50
2019-04-20T14:07:47.205Z,21.40
2019-04-20T14:10:17.509Z,21.30
2019-04-20T14:12:58.691Z,21.30
2019-04-20T14:15:19.323Z,21.40
2019-04-20T14:17:49.497Z,21.30
2019-04-20T14:20:21.634Z,21.10
2019-04-20T14:22:52.303Z,21.40
2019-04-20T14:25:22.773Z,21.50
2019-04-20T14:27:52.936Z,21.30
2019-04-20T14:30:22.785Z,21.30
2019-04-20T14:32:52.615Z,21.40
2019-04-20T14:35:22.962Z,21.40
2019-04-20T14:37:53.953Z,21.40
2019-04-20T14:40:24.531Z,21.30
2019-04-20T14:42:56.764Z,21.10
2019-04-20T14:45:24.806Z,21.20
2019-04-20T14:47:54.887Z,21.00
2019-04-20T14:50:25.520Z,21.10
2019-04-20T14:52:55.722Z,21.00
2019-04-20T14:55:25.807Z,21.00
2019-04-20T14:57:57.379Z,20.70
2019-04-20T15:01:04.819Z,20.90
2019-04-20T15:03:40.431Z,20.40
2019-04-20T15:06:09.727Z,20.40
2019-04-20T15:08:40.795Z,20.40
2019-04-20T15:11:10.072Z,20.40
2019-04-20T15:13:40.529Z,20.40
2019-04-20T15:16:10.842Z,20.40
2019-04-20T15:18:45.563Z,20.00
2019-04-20T15:21:17.633Z,20.30
2019-04-20T15:23:47.942Z,20.30
2019-04-20T15:26:18.382Z,20.20
2019-04-20T15:28:48.361Z,20.10
2019-04-20T15:31:18.433Z,20.10
2019-04-20T15:33:48.840Z,20.10
2019-04-20T15:36:18.155Z,20.00
2019-04-20T15:38:47.514Z,20.10
2019-04-20T15:41:18.524Z,19.90
2019-04-20T15:43:49.107Z,20.00
2019-04-20T15:46:19.349Z,20.00
2019-04-20T15:48:50.243Z,20.00
2019-04-20T15:51:19.567Z,19.80
2019-04-20T15:53:49.548Z,19.60
2019-04-20T15:56:18.919Z,19.70
2019-04-20T15:58:50.334Z,19.70
2019-04-20T16:01:22.761Z,19.70
2019-04-20T16:03:57.267Z,19.80
2019-04-20T16:06:29.470Z,19.70
2019-04-20T16:09:01.934Z,19.70
2019-04-20T16:11:32.892Z,19.60
2019-04-20T16:14:03.579Z,19.60
2019-04-20T16:16:33.993Z,19.50
2019-04-20T16:19:11.329Z,19.50
2019-04-20T16:21:37.294Z,19.30
2019-04-20T16:24:17.310Z,19.30
2019-04-20T16:27:07.526Z,19.30
2019-04-20T16:29:37.870Z,19.20
2019-04-20T16:32:08.796Z,19.20
2019-04-20T16:34:38.548Z,19.00
2019-04-20T16:37:08.622Z,19.10
2019-04-20T16:39:38.653Z,18.90
2019-04-20T16:42:11.894Z,18.80
2019-04-20T16:44:41.327Z,18.70
2019-04-20T16:47:12.303Z,18.70
2019-04-20T16:49:43.123Z,18.70
2019-04-20T16:52:12.832Z,18.60
2019-04-20T16:54:42.080Z,18.40
2019-04-20T16:57:13.075Z,18.40
2019-04-20T16:59:47.080Z,18.40
2019-04-20T17:02:16.072Z,18.30
2019-04-20T17:04:45.482Z,18.40
2019-04-20T17:07:27.200Z,18.20
2019-04-20T17:09:58.002Z,18.10
2019-04-20T17:12:28.092Z,18.10
2019-04-20T17:14:57.815Z,18.00
2019-04-20T17:17:29.394Z,17.90
2019-04-20T17:19:59.685Z,17.90
2019-04-20T17:22:29.936Z,17.80
2019-04-20T17:24:59.558Z,17.70
2019-04-20T17:27:49.120Z,17.70
2019-04-20T17:30:54.966Z,17.60
2019-04-20T17:33:50.508Z,17.60
2019-04-20T17:36:15.647Z,17.50
2019-04-20T17:38:44.565Z,17.50
2019-04-20T17:41:34.093Z,17.40
2019-04-20T17:44:01.484Z,17.40
2019-04-20T17:46:27.251Z,17.40
2019-04-20T17:49:07.545Z,17.40
2019-04-20T17:51:40.849Z,17.40
2019-04-20T17:54:06.864Z,17.40
2019-04-20T17:56:38.285Z,17.40
2019-04-20T17:59:08.199Z,17.30
2019-04-20T18:02:19.146Z,17.20
2019-04-20T18:05:09.824Z,17.30
2019-04-20T18:07:39.495Z,17.20
2019-04-20T18:10:09.973Z,17.20
2019-04-20T18:12:26.779Z,17.00
2019-04-20T18:15:08.077Z,17.00
2019-04-20T18:17:55.733Z,16.80
2019-04-20T18:20:19.129Z,16.70
2019-04-20T18:22:54.707Z,16.70
2019-04-20T18:25:52.364Z,16.60
2019-04-20T18:28:04.412Z,16.60
2019-04-20T18:30:41.498Z,16.50
2019-04-20T18:33:03.187Z,16.50
2019-04-20T18:35:34.899Z,16.40
2019-04-20T18:38:11.000Z,16.30
2019-04-20T18:40:48.339Z,16.20
2019-04-20T18:43:14.924Z,16.20
2019-04-20T18:45:58.802Z,16.20
2019-04-20T18:48:33.535Z,16.10
2019-04-20T18:50:46.630Z,16.10
2019-04-20T18:53:20.606Z,16.10
2019-04-20T18:55:51.500Z,16.00
2019-04-20T18:58:17.797Z,15.90
2019-04-20T19:00:51.590Z,15.80
2019-04-20T19:03:27.052Z,15.80
2019-04-20T19:05:49.957Z,15.80
2019-04-20T19:08:31.169Z,15.80
2019-04-20T19:11:00.063Z,15.70
2019-04-20T19:13:36.741Z,15.70
2019-04-20T19:16:30.429Z,15.60
2019-04-20T19:19:27.002Z,15.50
2019-04-20T19:21:43.839Z,15.50
2019-04-20T19:24:17.801Z,15.40
2019-04-20T19:26:51.488Z,15.40
2019-04-20T19:29:27.893Z,15.30
2019-04-20T19:32:07.659Z,15.30
2019-04-20T19:34:36.589Z,15.20
2019-04-20T19:37:04.129Z,15.20
2019-04-20T19:39:39.736Z,15.10
2019-04-20T19:42:08.152Z,15.00
2019-04-20T19:44:41.598Z,14.90
2019-04-20T19:47:16.901Z,14.90
2019-04-20T19:49:37.074Z,14.80
2019-04-20T19:52:30.888Z,14.80
2019-04-20T19:54:50.736Z,14.60
2019-04-20T19:57:22.571Z,14.50
2019-04-20T19:59:40.362Z,14.50
2019-04-20T20:02:07.621Z,14.40
2019-04-20T20:04:42.590Z,14.30
2019-04-20T20:07:19.733Z,14.20
2019-04-20T20:09:47.936Z,14.10
2019-04-20T20:12:14.554Z,14.00
2019-04-20T20:14:46.072Z,14.00
2019-04-20T20:17:33.147Z,13.90
2019-04-20T20:20:06.736Z,13.80
2019-04-20T20:22:25.247Z,13.80
2019-04-20T20:24:47.117Z,13.70
2019-04-20T20:27:25.607Z,13.70
2019-04-20T20:30:02.155Z,13.60
2019-04-20T20:32:39.128Z,13.60
2019-04-20T20:35:04.501Z,13.50
2019-04-20T20:37:30.334Z,13.40
2019-04-20T20:40:06.956Z,13.40
2019-04-20T20:42:33.031Z,13.30
2019-04-20T20:45:09.100Z,13.30
2019-04-20T20:47:48.789Z,13.20
2019-04-20T20:50:21.982Z,13.20
2019-04-20T20:52:46.531Z,13.20
2019-04-20T20:55:14.728Z,13.20
2019-04-20T20:57:44.902Z,13.20
2019-04-20T21:00:18.539Z,13.10
2019-04-20T21:02:45.871Z,13.00
2019-04-20T21:05:06.635Z,13.00
2019-04-20T21:07:36.529Z,13.00
2019-04-20T21:10:06.472Z,12.90
2019-04-20T21:12:45.351Z,12.80
2019-04-20T21:15:13.502Z,12.80
2019-04-20T21:17:56.305Z,12.70
2019-04-20T21:20:20.356Z,12.60
2019-04-20T21:22:58.981Z,12.50
2019-04-20T21:25:18.930Z,12.40
2019-04-20T21:27:49.115Z,12.30
2019-04-20T21:30:29.137Z,12.10
2019-04-20T21:32:54.289Z,12.00
2019-04-20T21:35:21.881Z,12.00
2019-04-20T21:37:56.992Z,11.90
2019-04-20T21:40:30.126Z,11.90
2019-04-20T21:42:59.285Z,11.80
2019-04-20T21:45:30.328Z,11.80
2019-04-20T21:47:56.594Z,11.80
2019-04-20T21:50:42.526Z,11.70
2019-04-20T21:53:06.039Z,11.60
2019-04-20T21:55:28.034Z,11.50
2019-04-20T21:58:00.435Z,11.40
2019-04-20T22:00:50.458Z,11.40
2019-04-20T22:03:18.643Z,11.30
2019-04-20T22:05:48.549Z,11.20
2019-04-20T22:08:19.579Z,11.00
2019-04-20T22:10:50.299Z,11.00
2019-04-20T22:13:26.777Z,10.90
2019-04-20T22:15:58.500Z,10.90
2019-04-20T22:18:23.956Z,10.80
2019-04-20T22:21:08.555Z,10.80
2019-04-20T22:23:43.379Z,10.80
2019-04-20T22:26:10.614Z,10.80
2019-04-20T22:28:27.702Z,10.80
2019-04-20T22:30:58.002Z,10.80
2019-04-20T22:33:36.718Z,10.70
2019-04-20T22:36:07.785Z,10.70
2019-04-20T22:39:05.098Z,10.70
2019-04-20T22:41:36.770Z,10.70
2019-04-20T22:44:12.171Z,10.60
2019-04-20T22:46:40.871Z,10.50
2019-04-20T22:49:28.380Z,10.60
2019-04-20T22:51:53.957Z,10.60
2019-04-20T22:54:31.245Z,10.50
2019-04-20T22:56:55.108Z,10.50
2019-04-20T22:59:20.353Z,10.40
2019-04-20T23:01:51.436Z,10.40
2019-04-20T23:04:16.904Z,10.30
2019-04-20T23:06:49.797Z,10.30
2019-04-20T23:09:18.604Z,10.30
2019-04-20T23:11:49.489Z,10.20
2019-04-20T23:14:20.366Z,10.20
2019-04-20T23:16:53.838Z,10.10
2019-04-20T23:19:33.932Z,10.10
2019-04-20T23:21:58.925Z,10.00
2019-04-20T23:24:24.481Z,10.00
2019-04-20T23:26:55.275Z,10.00
2019-04-20T23:29:28.335Z,10.00
2019-04-20T23:32:01.418Z,9.90
2019-04-20T23:34:31.003Z,9.90
2019-04-20T23:36:58.921Z,9.90
2019-04-20T23:39:35.183Z,9.90
2019-04-20T23:42:03.939Z,9.90
2019-04-20T23:44:45.041Z,9.80
2019-04-20T23:47:23.717Z,9.80
2019-04-20T23:50:12.404Z,9.80
2019-04-20T23:52:49.346Z,9.70
2019-04-20T23:55:04.132Z,9.80
2019-04-20T23:57:31.631Z,9.80
